Time;durP1;ratioP1;P1;durP2;ratioP2;P2;SDS_P1;SDS_P2;PMS_P1;PMS_P2;Temp;Humidity;BMP_temperature;BMP_pressure;BME280_temperature;BME280_humidity;BME280_pressure;Samples;Min_cycle;Max_cycle;Signal;HPM_P1;HPM_P2
2022/06/02 00:02:21;;;;;;;9.88;4.70;;;22.80;83.80;;;;;;5105740;27;20191;-73
2022/06/02 00:05:01;;;;;;;11.57;4.53;;;22.80;83.80;;;;;;5123669;27;20204;-74
2022/06/02 00:07:38;;;;;;;13.27;4.70;;;22.80;83.90;;;;;;5124110;27;20196;-74
2022/06/02 00:10:16;;;;;;;9.70;4.72;;;22.80;83.90;;;;;;5126378;27;20279;-75
2022/06/02 00:12:50;;;;;;;8.88;4.43;;;22.80;83.90;;;;;;5124780;27;20646;-74
2022/06/02 00:15:26;;;;;;;10.40;4.80;;;22.70;83.80;;;;;;5122605;27;20265;-74
2022/06/02 00:18:03;;;;;;;7.07;4.60;;;22.70;84.00;;;;;;5122799;27;20185;-75
2022/06/02 00:20:38;;;;;;;10.52;5.35;;;22.70;83.90;;;;;;5123929;27;20214;-74
2022/06/02 00:23:21;;;;;;;9.32;4.15;;;22.70;83.90;;;;;;5120018;27;20192;-74
2022/06/02 00:26:00;;;;;;;8.73;4.35;;;22.70;84.00;;;;;;5114095;27;20223;-74
2022/06/02 00:28:47;;;;;;;12.52;4.68;;;22.70;84.00;;;;;;5120942;27;20210;-74
2022/06/02 00:31:34;;;;;;;7.30;4.28;;;22.60;83.90;;;;;;5123527;27;20199;-74
2022/06/02 00:34:10;;;;;;;10.07;4.10;;;22.60;84.00;;;;;;5122538;27;20643;-74
2022/06/02 00:36:43;;;;;;;6.82;4.18;;;22.60;83.90;;;;;;5112971;27;20192;-74
2022/06/02 00:39:13;;;;;;;8.07;4.53;;;22.60;83.90;;;;;;5117964;27;20189;-74
2022/06/02 00:41:50;;;;;;;9.60;4.57;;;22.60;83.90;;;;;;5127618;27;20850;-74
2022/06/02 00:44:31;;;;;;;9.25;4.32;;;22.60;84.10;;;;;;5121981;27;20189;-74
2022/06/02 00:47:06;;;;;;;8.93;4.60;;;22.60;84.10;;;;;;5119153;27;20200;-74
2022/06/02 00:49:49;;;;;;;8.48;5.07;;;22.60;84.20;;;;;;5121552;27;20280;-74
2022/06/02 00:52:31;;;;;;;11.50;4.50;;;22.60;84.20;;;;;;5124446;27;20559;-73
2022/06/02 00:58:13;;;;;;;9.40;4.88;;;22.50;84.10;;;;;;5122232;27;20196;-73
2022/06/02 01:00:45;;;;;;;8.83;4.67;;;22.50;84.20;;;;;;5116077;27;20188;-74
2022/06/02 01:03:16;;;;;;;9.25;4.45;;;22.50;84.10;;;;;;5123166;27;20188;-74
2022/06/02 01:06:02;;;;;;;9.73;4.85;;;22.50;84.20;;;;;;5121032;27;21226;-74
2022/06/02 01:08:47;;;;;;;8.50;4.50;;;22.50;84.20;;;;;;5120363;27;20188;-74
2022/06/02 01:11:28;;;;;;;9.30;4.80;;;22.50;84.20;;;;;;5118539;27;20207;-72
2022/06/02 01:14:21;;;;;;;7.72;4.13;;;22.50;84.20;;;;;;5124060;27;20191;-73
2022/06/02 01:16:58;;;;;;;9.68;4.43;;;22.40;84.30;;;;;;5117210;27;20180;-73
2022/06/02 01:19:57;;;;;;;8.90;4.90;;;22.40;84.40;;;;;;5125017;27;20214;-73
2022/06/02 01:22:50;;;;;;;8.97;4.67;;;22.40;84.40;;;;;;5123315;27;20224;-74
2022/06/02 01:25:47;;;;;;;10.77;5.03;;;22.40;84.40;;;;;;5112694;27;20192;-74
2022/06/02 01:28:42;;;;;;;14.18;5.47;;;22.30;84.40;;;;;;5073116;27;20196;-74
2022/06/02 01:31:27;;;;;;;9.75;5.15;;;22.30;84.40;;;;;;5125252;27;20200;-74
2022/06/02 01:34:04;;;;;;;10.30;6.18;;;22.30;84.50;;;;;;5120244;27;20188;-74
2022/06/02 01:36:41;;;;;;;11.00;5.75;;;22.30;84.80;;;;;;5121938;27;20192;-74
2022/06/02 01:39:26;;;;;;;10.37;5.93;;;22.20;84.90;;;;;;5118142;27;20180;-74
2022/06/02 01:42:04;;;;;;;12.15;6.55;;;22.20;84.90;;;;;;5113815;27;20188;-74
2022/06/02 01:44:41;;;;;;;10.77;5.70;;;22.20;84.80;;;;;;5121019;27;20223;-73
2022/06/02 01:47:19;;;;;;;8.30;5.77;;;22.20;84.90;;;;;;5105033;27;20215;-75
2022/06/02 01:50:01;;;;;;;10.63;6.03;;;22.10;84.90;;;;;;5129608;27;20240;-75
2022/06/02 01:52:46;;;;;;;13.38;6.00;;;22.10;84.90;;;;;;5116136;27;20601;-75
2022/06/02 01:55:44;;;;;;;13.77;5.23;;;22.10;85.00;;;;;;5123960;27;20180;-75
2022/06/02 01:58:25;;;;;;;10.27;5.35;;;22.10;85.00;;;;;;5109945;27;20192;-76
2022/06/02 02:01:02;;;;;;;8.38;5.13;;;22.00;85.00;;;;;;5124730;27;20191;-75
2022/06/02 02:03:39;;;;;;;11.00;4.70;;;22.00;85.00;;;;;;5119443;27;20777;-75
2022/06/02 02:06:17;;;;;;;7.23;4.17;;;22.00;85.30;;;;;;5127834;27;20211;-75
2022/06/02 02:09:02;;;;;;;16.60;5.25;;;21.90;85.30;;;;;;5125436;27;20199;-75
2022/06/02 02:11:47;;;;;;;10.73;5.13;;;21.90;85.30;;;;;;5123076;27;20190;-74
2022/06/02 02:14:54;;;;;;;10.83;5.73;;;21.90;85.30;;;;;;5117060;27;20551;-75
2022/06/02 02:17:42;;;;;;;9.70;5.43;;;21.90;85.60;;;;;;5102484;27;20192;-75
2022/06/02 02:20:26;;;;;;;13.27;5.60;;;21.90;85.50;;;;;;5121510;27;20188;-74
2022/06/02 02:23:02;;;;;;;11.27;5.53;;;21.80;85.40;;;;;;5116771;27;20188;-75
2022/06/02 02:25:45;;;;;;;14.67;5.23;;;21.80;85.40;;;;;;5115424;27;20188;-75
2022/06/02 02:28:20;;;;;;;10.03;5.20;;;21.80;85.50;;;;;;5117129;27;21027;-74
2022/06/02 02:31:04;;;;;;;11.80;5.60;;;21.80;85.50;;;;;;5122620;27;20204;-74
2022/06/02 02:33:42;;;;;;;10.27;5.25;;;21.70;85.60;;;;;;5113277;27;20196;-74
2022/06/02 02:36:17;;;;;;;10.80;5.40;;;21.70;85.70;;;;;;5115629;27;20187;-74
2022/06/02 02:38:54;;;;;;;9.10;4.80;;;21.70;85.80;;;;;;5115504;27;20188;-74
2022/06/02 02:41:29;;;;;;;11.30;5.27;;;21.70;85.90;;;;;;5114473;28;20201;-74
2022/06/02 02:44:06;;;;;;;7.93;5.10;;;21.70;86.10;;;;;;5109420;27;20464;-74
2022/06/02 02:46:39;;;;;;;11.13;4.97;;;21.60;86.00;;;;;;5118338;27;20209;-74
2022/06/02 02:49:14;;;;;;;8.30;5.30;;;21.60;86.10;;;;;;5110718;27;20188;-74
2022/06/02 02:51:51;;;;;;;8.10;4.90;;;21.60;86.20;;;;;;5121297;28;20188;-74
2022/06/02 02:54:26;;;;;;;6.70;4.70;;;21.60;86.30;;;;;;5114075;27;20189;-74
2022/06/02 02:57:01;;;;;;;12.17;5.57;;;21.60;86.30;;;;;;5112633;28;20192;-75
2022/06/02 02:59:41;;;;;;;9.97;5.90;;;21.60;86.50;;;;;;5118187;27;20184;-74
2022/06/02 03:02:23;;;;;;;10.30;5.20;;;21.60;86.50;;;;;;5118546;27;20208;-75
2022/06/02 03:05:06;;;;;;;12.07;4.77;;;21.60;86.60;;;;;;5109055;27;20233;-74
2022/06/02 03:07:35;;;;;;;10.50;5.10;;;21.50;86.50;;;;;;5119464;27;20211;-74
2022/06/02 03:10:17;;;;;;;9.03;5.03;;;21.50;86.60;;;;;;5118095;27;20191;-74
2022/06/02 03:13:29;;;;;;;9.83;5.00;;;21.50;86.70;;;;;;5120442;27;20202;-74
2022/06/02 03:16:01;;;;;;;11.17;5.50;;;21.50;86.90;;;;;;5081011;27;20209;-74
2022/06/02 03:18:48;;;;;;;11.57;5.57;;;21.50;87.00;;;;;;5120771;27;20197;-74
2022/06/02 03:21:20;;;;;;;14.27;5.33;;;21.50;87.40;;;;;;5122315;27;20199;-74
2022/06/02 03:24:27;;;;;;;10.37;5.30;;;21.50;87.70;;;;;;5122753;27;20188;-73
2022/06/02 03:27:09;;;;;;;8.60;4.67;;;21.50;87.80;;;;;;5065566;27;20216;-75
2022/06/02 03:29:50;;;;;;;14.43;5.30;;;21.50;87.70;;;;;;5121378;27;20192;-74
2022/06/02 03:32:37;;;;;;;10.87;5.00;;;21.50;87.80;;;;;;5123564;27;20204;-75
2022/06/02 03:35:18;;;;;;;11.37;5.00;;;21.50;87.90;;;;;;5120959;27;20188;-75
2022/06/02 03:38:00;;;;;;;11.27;4.80;;;21.60;88.00;;;;;;5122346;27;20556;-75
2022/06/02 03:40:45;;;;;;;8.60;4.67;;;21.60;87.80;;;;;;5117039;27;20771;-74
2022/06/02 03:43:17;;;;;;;7.80;4.20;;;21.60;87.80;;;;;;5119185;27;20184;-75
2022/06/02 03:46:02;;;;;;;6.93;4.47;;;21.70;87.70;;;;;;5120181;27;20200;-75
2022/06/02 03:49:04;;;;;;;8.67;4.77;;;21.70;87.70;;;;;;5122398;27;20894;-74
2022/06/02 03:51:43;;;;;;;12.17;5.07;;;21.70;87.70;;;;;;5116548;27;20195;-74
2022/06/02 03:54:38;;;;;;;12.97;4.70;;;21.80;87.60;;;;;;5116981;27;20188;-74
2022/06/02 03:57:24;;;;;;;10.47;4.63;;;21.80;87.60;;;;;;5123979;27;20184;-75
2022/06/02 04:00:07;;;;;;;11.10;4.30;;;21.80;87.50;;;;;;5114847;27;20184;-74
2022/06/02 04:02:43;;;;;;;8.70;4.27;;;21.80;87.40;;;;;;5119943;27;20206;-75
2022/06/02 04:05:34;;;;;;;10.15;4.35;;;21.90;87.30;;;;;;5121131;27;20229;-74
2022/06/02 04:08:12;;;;;;;9.98;3.67;;;21.90;87.20;;;;;;5118261;27;20227;-75
2022/06/02 04:10:50;;;;;;;11.98;4.00;;;22.00;87.20;;;;;;5124736;27;20680;-75
2022/06/02 04:13:38;;;;;;;12.32;3.92;;;22.00;87.10;;;;;;5120633;27;20180;-74
2022/06/02 04:16:27;;;;;;;7.97;3.80;;;22.00;87.00;;;;;;5116869;27;20223;-75
2022/06/02 04:22:10;;;;;;;11.10;3.83;;;22.10;86.60;;;;;;5117516;27;20191;-75
2022/06/02 04:24:51;;;;;;;11.98;4.15;;;22.10;86.50;;;;;;5125704;27;20188;-74
2022/06/02 04:27:27;;;;;;;13.73;3.90;;;22.20;86.30;;;;;;5122529;27;20219;-75
2022/06/02 04:30:07;;;;;;;11.45;4.00;;;22.20;86.30;;;;;;5120773;27;20188;-74
2022/06/02 04:32:42;;;;;;;9.82;4.00;;;22.20;86.20;;;;;;5122782;27;20211;-74
2022/06/02 04:35:27;;;;;;;9.43;3.92;;;22.20;86.20;;;;;;5122678;27;20184;-75
2022/06/02 04:38:03;;;;;;;7.93;4.43;;;22.30;86.30;;;;;;5113997;27;20434;-75
2022/06/02 04:40:42;;;;;;;12.10;4.13;;;22.30;86.40;;;;;;5123514;27;20192;-75
2022/06/02 04:43:21;;;;;;;7.72;4.20;;;22.40;86.40;;;;;;5121007;27;20184;-74
2022/06/02 04:46:02;;;;;;;10.57;4.25;;;22.40;86.20;;;;;;5118911;27;20184;-75
2022/06/02 04:48:39;;;;;;;8.10;4.07;;;22.40;86.10;;;;;;5116667;27;20713;-74
2022/06/02 04:51:15;;;;;;;10.70;4.32;;;22.50;86.00;;;;;;5120778;27;20180;-75
2022/06/02 04:53:52;;;;;;;6.82;4.30;;;22.50;86.00;;;;;;5120607;27;20289;-76
2022/06/02 04:56:36;;;;;;;7.95;4.03;;;22.60;86.00;;;;;;5122869;27;20199;-75
2022/06/02 04:59:12;;;;;;;12.02;3.95;;;22.60;85.90;;;;;;5114874;27;20184;-76
2022/06/02 05:01:55;;;;;;;9.10;4.00;;;22.60;85.80;;;;;;5122340;27;20219;-75
2022/06/02 05:04:34;;;;;;;10.93;4.15;;;22.70;85.80;;;;;;5117384;27;20176;-76
2022/06/02 05:07:13;;;;;;;10.80;4.03;;;22.70;85.70;;;;;;5117148;27;20208;-75
2022/06/02 05:09:49;;;;;;;5.93;3.67;;;22.80;85.70;;;;;;5122605;27;20192;-75
2022/06/02 05:12:39;;;;;;;6.13;3.45;;;22.80;85.70;;;;;;5114812;27;20199;-75
2022/06/02 05:15:17;;;;;;;9.65;4.03;;;22.90;85.60;;;;;;5114072;27;20212;-75
2022/06/02 05:18:06;;;;;;;9.55;3.92;;;23.00;85.70;;;;;;5118047;27;20568;-76
2022/06/02 05:20:45;;;;;;;8.95;4.68;;;23.00;85.70;;;;;;5123286;27;20236;-76
2022/06/02 05:23:47;;;;;;;8.82;4.03;;;23.10;85.60;;;;;;5124104;27;20184;-76
2022/06/02 05:26:33;;;;;;;7.07;3.60;;;23.10;85.30;;;;;;5122828;27;20203;-77
2022/06/02 05:29:27;;;;;;;11.73;4.25;;;23.20;85.30;;;;;;5116626;27;20240;-76
2022/06/02 05:32:22;;;;;;;6.95;3.80;;;23.20;85.10;;;;;;5120848;27;20246;-76
2022/06/02 05:35:27;;;;;;;5.80;3.47;;;23.30;85.10;;;;;;5116251;27;20197;-75
2022/06/02 05:38:21;;;;;;;9.38;4.43;;;23.40;85.20;;;;;;5099442;27;20207;-75
2022/06/02 05:41:02;;;;;;;8.55;3.63;;;23.50;85.20;;;;;;5124243;27;20192;-75
2022/06/02 05:43:42;;;;;;;6.53;3.45;;;23.50;84.90;;;;;;5116490;27;20188;-75
2022/06/02 05:46:28;;;;;;;8.63;3.90;;;23.60;84.90;;;;;;5114936;27;20212;-75
2022/06/02 05:49:18;;;;;;;6.90;3.70;;;23.60;84.80;;;;;;5122441;27;20215;-74
2022/06/02 05:51:57;;;;;;;8.30;3.72;;;23.70;84.60;;;;;;5114477;27;20188;-75
2022/06/02 05:54:48;;;;;;;10.25;3.72;;;23.80;84.40;;;;;;5118138;27;20871;-75
2022/06/02 05:57:37;;;;;;;8.60;3.53;;;23.90;84.10;;;;;;5124633;27;20196;-75
2022/06/02 06:00:28;;;;;;;12.65;4.82;;;24.00;83.50;;;;;;5121498;27;20184;-76
2022/06/02 06:03:32;;;;;;;8.18;3.97;;;24.10;83.00;;;;;;5124466;27;20198;-75
2022/06/02 06:06:04;;;;;;;7.05;3.72;;;24.10;82.80;;;;;;5122584;27;20227;-74
2022/06/02 06:08:52;;;;;;;11.75;4.03;;;24.20;82.90;;;;;;5119386;27;20220;-75
2022/06/02 06:11:32;;;;;;;8.20;3.40;;;24.30;82.80;;;;;;5114203;27;20630;-75
2022/06/02 06:14:17;;;;;;;10.20;3.78;;;24.40;82.70;;;;;;5113343;27;20651;-75
2022/06/02 06:16:54;;;;;;;12.48;4.00;;;24.50;82.80;;;;;;5122197;27;20188;-75
2022/06/02 06:19:46;;;;;;;8.80;3.83;;;24.60;82.60;;;;;;5123042;27;20319;-74
2022/06/02 06:22:36;;;;;;;8.85;4.53;;;24.70;82.40;;;;;;5121601;27;20188;-75
2022/06/02 06:25:31;;;;;;;5.72;3.78;;;24.80;82.20;;;;;;5112443;27;20188;-75
2022/06/02 06:28:10;;;;;;;7.38;3.67;;;24.90;81.60;;;;;;5124027;27;20212;-75
2022/06/02 06:30:51;;;;;;;9.70;3.55;;;25.00;81.40;;;;;;5121561;27;20196;-75
2022/06/02 06:33:35;;;;;;;5.72;3.47;;;25.00;81.30;;;;;;5125178;27;20655;-75
2022/06/02 06:36:19;;;;;;;8.73;3.63;;;25.10;81.30;;;;;;5124405;27;20195;-76
2022/06/02 06:39:02;;;;;;;6.40;3.72;;;25.20;80.90;;;;;;5118921;28;20283;-75
2022/06/02 06:42:05;;;;;;;5.82;3.28;;;25.20;80.30;;;;;;5121085;27;20188;-74
2022/06/02 06:44:41;;;;;;;6.70;3.60;;;25.40;80.30;;;;;;5074251;28;20192;-74
2022/06/02 06:47:15;;;;;;;9.77;3.42;;;25.40;80.10;;;;;;5121055;28;20180;-75
2022/06/02 06:49:55;;;;;;;6.93;3.33;;;25.50;80.20;;;;;;5124174;28;20223;-74
2022/06/02 06:52:41;;;;;;;4.97;3.28;;;25.60;79.90;;;;;;5119777;28;20871;-75
2022/06/02 06:55:25;;;;;;;6.47;3.38;;;25.70;79.80;;;;;;5109084;28;20224;-74
2022/06/02 06:58:04;;;;;;;11.82;4.05;;;25.80;79.60;;;;;;5117742;27;20192;-75
2022/06/02 07:00:37;;;;;;;7.90;3.55;;;25.90;79.50;;;;;;5113193;27;20203;-76
2022/06/02 07:03:18;;;;;;;6.65;3.88;;;26.00;79.30;;;;;;5110768;27;20216;-74
2022/06/02 07:05:50;;;;;;;10.85;3.72;;;26.00;79.00;;;;;;5119621;27;20191;-75
2022/06/02 07:08:29;;;;;;;5.60;3.63;;;26.10;79.00;;;;;;5115498;27;20204;-75
2022/06/02 07:11:07;;;;;;;9.95;3.80;;;26.20;79.10;;;;;;5120432;27;20184;-75
2022/06/02 07:13:46;;;;;;;7.30;3.75;;;26.20;78.60;;;;;;5124087;28;20193;-75
2022/06/02 07:16:20;;;;;;;7.32;4.13;;;26.30;78.40;;;;;;5118134;27;20233;-74
2022/06/02 07:18:59;;;;;;;8.60;3.80;;;26.30;78.40;;;;;;5119001;27;20957;-75
2022/06/02 07:21:34;;;;;;;8.00;3.67;;;26.40;78.30;;;;;;5123789;27;20199;-73
2022/06/02 07:24:13;;;;;;;10.88;3.28;;;26.50;78.30;;;;;;5121592;28;20196;-75
2022/06/02 07:26:58;;;;;;;9.82;3.80;;;26.50;78.30;;;;;;5123910;27;20197;-74
2022/06/02 07:29:50;;;;;;;7.18;4.13;;;26.60;77.90;;;;;;5118794;27;20239;-76
2022/06/02 07:33:02;;;;;;;8.18;4.30;;;26.70;77.70;;;;;;5117850;27;20196;-76
2022/06/02 07:36:02;;;;;;;6.32;3.83;;;26.70;77.70;;;;;;5034900;28;20626;-75
2022/06/02 07:38:50;;;;;;;5.20;3.13;;;26.80;78.40;;;;;;5111835;27;20184;-74
2022/06/02 07:41:36;;;;;;;9.05;4.00;;;26.80;77.40;;;;;;5116786;27;20222;-76
2022/06/02 07:44:28;;;;;;;10.10;3.83;;;26.90;77.20;;;;;;5116597;27;20197;-76
2022/06/02 07:47:12;;;;;;;6.75;3.50;;;27.00;76.40;;;;;;5119716;27;20191;-75
2022/06/02 07:49:55;;;;;;;6.80;3.90;;;27.00;76.00;;;;;;5122886;28;20211;-74
2022/06/02 07:52:31;;;;;;;6.72;3.90;;;27.10;75.90;;;;;;5118646;27;20186;-75
2022/06/02 07:55:13;;;;;;;7.40;4.07;;;27.10;75.80;;;;;;5125078;27;20189;-74
2022/06/02 07:57:48;;;;;;;7.38;4.05;;;27.20;75.90;;;;;;5123717;27;20582;-75
2022/06/02 08:00:20;;;;;;;8.63;3.80;;;27.20;75.70;;;;;;5120446;27;20287;-75
2022/06/02 08:03:10;;;;;;;6.00;3.60;;;27.20;75.80;;;;;;5123100;27;20189;-75
2022/06/02 08:05:45;;;;;;;7.35;4.00;;;27.30;75.70;;;;;;5120224;27;20187;-75
2022/06/02 08:08:29;;;;;;;8.75;4.00;;;27.30;75.50;;;;;;5120586;27;20184;-75
2022/06/02 08:11:28;;;;;;;5.70;3.50;;;27.40;75.10;;;;;;5120084;27;20188;-76
2022/06/02 08:14:06;;;;;;;8.23;3.67;;;27.40;74.70;;;;;;5120792;27;20189;-75
2022/06/02 08:16:50;;;;;;;8.57;3.72;;;27.50;74.20;;;;;;5123294;27;20953;-74
2022/06/02 08:19:30;;;;;;;11.73;3.80;;;27.50;73.80;;;;;;5119560;27;20288;-74
2022/06/02 08:22:02;;;;;;;6.43;3.53;;;27.60;73.40;;;;;;5120358;27;20199;-75
2022/06/02 08:25:02;;;;;;;6.60;3.60;;;27.60;73.30;;;;;;5122032;27;20191;-73
2022/06/02 08:28:00;;;;;;;9.90;4.32;;;27.70;73.30;;;;;;5112571;27;20204;-75
2022/06/02 08:30:37;;;;;;;7.78;3.78;;;27.80;72.90;;;;;;5113260;27;20221;-74
2022/06/02 08:33:27;;;;;;;6.28;3.08;;;27.80;72.70;;;;;;5113871;27;20638;-73
2022/06/02 08:36:05;;;;;;;11.20;3.85;;;27.80;72.90;;;;;;5121432;27;20193;-76
2022/06/02 08:38:58;;;;;;;6.28;3.55;;;27.90;73.10;;;;;;5126434;27;20203;-75
2022/06/02 08:42:01;;;;;;;6.13;3.30;;;27.90;72.90;;;;;;5113097;27;20206;-74
2022/06/02 08:45:09;;;;;;;5.35;3.38;;;28.00;72.70;;;;;;5116061;27;20180;-76
2022/06/02 08:48:25;;;;;;;5.80;3.95;;;28.00;72.00;;;;;;5117894;27;20762;-76
2022/06/02 08:51:28;;;;;;;8.05;3.55;;;28.00;71.10;;;;;;5116117;27;20234;-75
2022/06/02 08:54:40;;;;;;;5.63;3.40;;;28.10;71.20;;;;;;5113535;27;21079;-74
2022/06/02 08:57:18;;;;;;;7.75;4.30;;;28.10;71.20;;;;;;5116434;27;20242;-75
2022/06/02 09:00:23;;;;;;;10.48;3.90;;;28.20;71.10;;;;;;5120241;27;20256;-74
2022/06/02 09:03:21;;;;;;;5.18;3.47;;;28.20;70.50;;;;;;5113733;27;20215;-75
2022/06/02 09:06:47;;;;;;;12.68;7.82;;;28.30;69.70;;;;;;5114211;27;20193;-75
2022/06/02 09:09:44;;;;;;;7.13;3.58;;;28.40;69.50;;;;;;5119550;27;20216;-73
2022/06/02 09:12:34;;;;;;;5.45;3.15;;;28.50;70.00;;;;;;5104400;27;20199;-74
2022/06/02 09:15:21;;;;;;;7.55;4.25;;;28.50;70.50;;;;;;5123785;27;20220;-75
2022/06/02 09:18:06;;;;;;;8.27;3.13;;;28.60;70.50;;;;;;5109272;27;20211;-75
2022/06/02 09:20:47;;;;;;;10.15;3.55;;;28.60;70.00;;;;;;5120344;27;20195;-75
2022/06/02 09:23:45;;;;;;;4.82;3.33;;;28.70;69.90;;;;;;5116115;27;20188;-75
2022/06/02 09:26:38;;;;;;;8.60;3.42;;;28.80;69.70;;;;;;5113584;27;20741;-76
2022/06/02 09:29:21;;;;;;;11.73;7.28;;;28.80;68.70;;;;;;5116739;27;21058;-73
2022/06/02 09:32:09;;;;;;;6.57;3.90;;;28.90;68.90;;;;;;5123826;27;20184;-73
2022/06/02 09:35:01;;;;;;;8.52;3.33;;;28.90;68.80;;;;;;5119692;27;20667;-73
2022/06/02 09:38:06;;;;;;;7.03;3.15;;;29.00;67.70;;;;;;5114131;27;20186;-76
2022/06/02 09:40:46;;;;;;;8.20;3.92;;;29.00;66.80;;;;;;5117837;27;20188;-76
2022/06/02 09:43:41;;;;;;;5.40;3.60;;;29.10;67.00;;;;;;5115722;27;20753;-74
2022/06/02 09:46:41;;;;;;;7.20;3.17;;;29.10;67.20;;;;;;5122764;27;20188;-75
2022/06/02 09:49:49;;;;;;;8.85;3.10;;;29.20;67.10;;;;;;5116947;27;20188;-75
2022/06/02 09:52:35;;;;;;;8.68;3.85;;;29.30;67.80;;;;;;5087302;27;20944;-75
2022/06/02 09:55:16;;;;;;;5.25;3.50;;;29.30;66.80;;;;;;5116893;27;20196;-76
2022/06/02 09:58:11;;;;;;;5.45;3.45;;;29.40;67.20;;;;;;5121353;27;20701;-75
2022/06/02 10:01:30;;;;;;;5.85;3.80;;;29.40;67.00;;;;;;5086927;27;20203;-75
2022/06/02 10:04:34;;;;;;;6.80;3.10;;;29.50;66.60;;;;;;5056628;28;20244;-77
2022/06/02 10:07:41;;;;;;;6.65;3.38;;;29.60;66.20;;;;;;5105863;27;20195;-75
2022/06/02 10:10:41;;;;;;;8.30;3.42;;;29.60;65.60;;;;;;5114982;27;20215;-75
2022/06/02 10:13:49;;;;;;;11.90;4.43;;;29.70;65.70;;;;;;5122855;27;20210;-74
2022/06/02 10:16:54;;;;;;;8.38;3.88;;;29.80;65.60;;;;;;5116214;27;20292;-74
2022/06/02 10:19:55;;;;;;;7.00;3.17;;;29.80;65.60;;;;;;5116951;27;20193;-75
2022/06/02 10:22:34;;;;;;;9.43;3.45;;;29.90;64.30;;;;;;5120717;27;20192;-76
2022/06/02 10:25:27;;;;;;;4.20;2.72;;;30.00;64.50;;;;;;5120708;27;20195;-74
2022/06/02 10:28:11;;;;;;;5.15;3.17;;;30.10;64.30;;;;;;5116245;27;20188;-75
2022/06/02 10:31:27;;;;;;;4.95;3.25;;;30.20;64.70;;;;;;5121798;27;20219;-75
2022/06/02 10:34:28;;;;;;;9.60;3.45;;;30.30;64.50;;;;;;5070830;27;20192;-77
2022/06/02 10:37:33;;;;;;;5.72;2.78;;;30.30;64.50;;;;;;5120041;27;20813;-74
2022/06/02 10:40:13;;;;;;;5.13;3.05;;;30.30;63.80;;;;;;5115404;27;20184;-74
2022/06/02 10:43:14;;;;;;;8.68;3.00;;;30.40;63.70;;;;;;5111704;28;20196;-73
2022/06/02 10:46:21;;;;;;;5.82;2.72;;;30.40;61.30;;;;;;5071814;27;20220;-73
2022/06/02 10:49:13;;;;;;;5.85;2.65;;;30.60;61.90;;;;;;5121972;28;20237;-76
2022/06/02 10:52:10;;;;;;;4.72;2.65;;;30.60;61.10;;;;;;5124014;28;20207;-73
2022/06/02 10:55:07;;;;;;;4.82;2.65;;;30.60;60.30;;;;;;5075298;27;20196;-73
2022/06/02 10:58:20;;;;;;;6.97;3.03;;;30.60;60.40;;;;;;5075108;28;20207;-75
2022/06/02 11:01:25;;;;;;;8.70;3.17;;;30.70;60.80;;;;;;5093705;28;20211;-76
2022/06/02 11:04:36;;;;;;;5.25;3.25;;;30.70;60.70;;;;;;5120772;28;20194;-75
2022/06/02 11:07:37;;;;;;;6.18;3.83;;;30.80;60.50;;;;;;5119903;27;20193;-74
2022/06/02 11:10:25;;;;;;;5.85;2.97;;;30.90;60.20;;;;;;5120432;28;20180;-75
2022/06/02 11:13:33;;;;;;;6.75;3.20;;;30.90;60.20;;;;;;5115827;28;20588;-74
2022/06/02 11:16:51;;;;;;;6.00;2.65;;;31.00;60.10;;;;;;5121135;27;20262;-73
2022/06/02 11:20:09;;;;;;;7.68;2.95;;;31.10;59.60;;;;;;5122851;28;20192;-76
2022/06/02 11:23:12;;;;;;;5.22;2.83;;;31.10;59.60;;;;;;5115882;28;20197;-74
2022/06/02 11:26:29;;;;;;;4.93;2.55;;;31.10;58.80;;;;;;5107681;27;20275;-75
2022/06/02 11:29:32;;;;;;;4.55;2.72;;;31.20;58.80;;;;;;5123908;27;20196;-74
2022/06/02 11:32:17;;;;;;;5.40;2.88;;;31.30;58.30;;;;;;5122171;27;20226;-77
2022/06/02 11:35:18;;;;;;;7.85;2.42;;;31.30;58.00;;;;;;5123158;27;20196;-75
2022/06/02 11:38:18;;;;;;;6.45;2.85;;;31.40;57.70;;;;;;5123512;27;20211;-74
2022/06/02 11:41:04;;;;;;;7.88;3.22;;;31.40;57.50;;;;;;5120407;27;20211;-74
2022/06/02 11:43:46;;;;;;;10.90;2.67;;;31.40;57.00;;;;;;5124378;27;20239;-75
2022/06/02 11:47:01;;;;;;;6.57;3.33;;;31.40;57.50;;;;;;5110637;27;20216;-75
2022/06/02 11:49:53;;;;;;;5.40;2.60;;;31.60;58.10;;;;;;5111486;27;20227;-75
2022/06/02 11:52:52;;;;;;;5.28;2.70;;;31.70;57.80;;;;;;5119077;27;20208;-75
2022/06/02 11:55:33;;;;;;;4.20;2.92;;;31.70;57.60;;;;;;5103800;27;20205;-75
2022/06/02 11:58:41;;;;;;;5.50;2.92;;;31.80;57.60;;;;;;5119438;27;20194;-75
2022/06/02 12:01:42;;;;;;;3.92;2.45;;;31.90;57.50;;;;;;5117556;27;20658;-74
2022/06/02 12:04:40;;;;;;;7.78;3.15;;;32.00;57.70;;;;;;5117214;27;20662;-74
2022/06/02 12:07:59;;;;;;;5.25;2.72;;;32.00;57.50;;;;;;5121807;27;20188;-76
2022/06/02 12:11:03;;;;;;;6.30;2.70;;;32.00;57.50;;;;;;5116356;27;20269;-75
2022/06/02 12:13:46;;;;;;;8.88;2.65;;;32.10;57.20;;;;;;5079664;27;20662;-76
2022/06/02 12:16:44;;;;;;;7.25;2.40;;;32.10;57.40;;;;;;5123927;27;20216;-75
2022/06/02 12:19:38;;;;;;;5.80;2.63;;;32.30;57.20;;;;;;5126013;27;20185;-73
2022/06/02 12:22:32;;;;;;;5.85;2.15;;;32.30;57.10;;;;;;5123129;27;20188;-76
2022/06/02 12:25:36;;;;;;;4.28;2.38;;;32.40;56.60;;;;;;5125974;27;20181;-77
2022/06/02 12:28:57;;;;;;;4.45;2.65;;;32.50;56.20;;;;;;5119145;27;20790;-75
2022/06/02 12:31:54;;;;;;;2.95;2.05;;;32.60;56.20;;;;;;5121782;27;20208;-75
2022/06/02 12:34:50;;;;;;;7.97;2.80;;;32.80;56.30;;;;;;5112464;27;20181;-75
2022/06/02 12:38:04;;;;;;;5.20;2.50;;;32.90;56.20;;;;;;5124476;27;20188;-75
2022/06/02 12:40:43;;;;;;;5.50;2.35;;;33.20;55.80;;;;;;5088421;27;20843;-74
2022/06/02 12:43:47;;;;;;;5.82;2.53;;;33.40;56.10;;;;;;5122070;27;20203;-76
2022/06/02 12:46:44;;;;;;;8.52;2.63;;;33.60;55.20;;;;;;5123359;27;20187;-76
2022/06/02 12:49:51;;;;;;;5.07;3.15;;;33.80;54.20;;;;;;5125145;27;20184;-73
2022/06/02 12:52:59;;;;;;;5.30;2.20;;;34.00;53.90;;;;;;5117707;27;20565;-76
2022/06/02 12:56:04;;;;;;;5.40;2.47;;;34.10;53.40;;;;;;5112264;27;20192;-75
2022/06/02 12:59:04;;;;;;;7.65;2.13;;;34.10;52.50;;;;;;5124160;27;20193;-74
2022/06/02 13:01:51;;;;;;;6.35;2.50;;;34.10;51.10;;;;;;5123325;27;20184;-75
2022/06/02 13:05:04;;;;;;;4.97;2.10;;;34.10;50.30;;;;;;5123138;27;20245;-76
2022/06/02 13:08:28;;;;;;;6.68;2.22;;;34.20;50.80;;;;;;5126721;27;20279;-75
2022/06/02 13:11:25;;;;;;;4.10;2.55;;;34.40;50.80;;;;;;5121898;27;20196;-76
2022/06/02 13:14:18;;;;;;;5.40;2.83;;;34.60;50.00;;;;;;5116899;27;20226;-75
2022/06/02 13:17:26;;;;;;;7.72;2.47;;;34.90;49.50;;;;;;5121767;27;20207;-77
2022/06/02 13:20:27;;;;;;;6.45;2.80;;;35.10;49.10;;;;;;5105967;27;20212;-75
2022/06/02 13:23:36;;;;;;;3.95;1.83;;;35.30;48.90;;;;;;5120005;27;20287;-77
2022/06/02 13:26:22;;;;;;;8.20;2.13;;;35.60;48.20;;;;;;5122311;27;20191;-76
2022/06/02 13:29:19;;;;;;;4.57;2.00;;;35.60;46.70;;;;;;5126035;27;20192;-75
2022/06/02 13:32:22;;;;;;;3.15;1.67;;;35.60;46.30;;;;;;5124192;27;20212;-75
2022/06/02 13:35:27;;;;;;;7.70;1.70;;;35.70;45.80;;;;;;5090447;27;20849;-74
2022/06/02 13:38:24;;;;;;;2.65;1.50;;;35.50;45.10;;;;;;5114784;27;20184;-75
2022/06/02 13:41:06;;;;;;;2.30;1.70;;;35.40;44.70;;;;;;5116819;27;20195;-75
2022/06/02 13:43:58;;;;;;;3.72;1.92;;;35.30;45.10;;;;;;5123261;27;20188;-74
2022/06/02 13:47:00;;;;;;;3.97;1.85;;;35.10;44.80;;;;;;5124461;27;20641;-74
2022/06/02 13:49:58;;;;;;;4.53;2.17;;;35.00;44.60;;;;;;5123823;27;20185;-76
2022/06/02 13:53:23;;;;;;;5.20;1.88;;;34.90;45.20;;;;;;5123145;27;20302;-77
2022/06/02 13:59:53;;;;;;;7.32;2.53;;;34.70;45.20;;;;;;5117835;27;20176;-73
2022/06/02 14:02:44;;;;;;;3.53;1.58;;;34.60;45.50;;;;;;5117280;27;20192;-75
2022/06/02 14:05:42;;;;;;;5.75;1.60;;;34.60;45.40;;;;;;5064059;27;20223;-76
2022/06/02 14:08:53;;;;;;;6.07;1.48;;;34.50;45.40;;;;;;5119294;27;20626;-76
2022/06/02 14:11:35;;;;;;;5.20;1.77;;;34.50;45.50;;;;;;5118069;27;20193;-74
2022/06/02 14:14:23;;;;;;;3.70;1.70;;;34.70;45.00;;;;;;5117571;27;20192;-75
2022/06/02 14:16:58;;;;;;;8.73;2.10;;;34.90;45.00;;;;;;5083184;28;20206;-73
2022/06/02 14:20:00;;;;;;;5.00;2.20;;;34.90;45.10;;;;;;5083415;28;20220;-74
2022/06/02 14:22:38;;;;;;;3.22;1.90;;;34.80;45.40;;;;;;5092932;28;20196;-74
2022/06/02 14:25:14;;;;;;;5.55;1.83;;;35.00;45.30;;;;;;5081058;28;20193;-73
2022/06/02 14:28:07;;;;;;;12.05;2.30;;;35.50;44.40;;;;;;5082488;28;20616;-74
2022/06/02 14:30:44;;;;;;;6.28;2.22;;;35.50;44.50;;;;;;5075926;28;20193;-74
2022/06/02 14:33:21;;;;;;;4.60;1.98;;;35.40;44.70;;;;;;5079611;28;20567;-75
2022/06/02 14:35:57;;;;;;;5.38;2.05;;;35.30;44.60;;;;;;5082782;28;20628;-74
2022/06/02 14:38:41;;;;;;;9.70;2.10;;;35.30;44.30;;;;;;5077993;28;20193;-73
2022/06/02 14:41:19;;;;;;;5.78;2.05;;;35.70;44.20;;;;;;5087523;28;20190;-75
2022/06/02 14:44:02;;;;;;;7.38;2.35;;;35.90;43.80;;;;;;5086144;28;20200;-73